createdAt,value
2018-06-07T00:00:31.295Z,17.40
2018-06-07T00:03:01.671Z,17.30
2018-06-07T00:05:31.886Z,17.30
2018-06-07T00:08:02.202Z,17.30
2018-06-07T00:10:32.404Z,17.20
2018-06-07T00:13:02.748Z,17.20
2018-06-07T00:15:33.101Z,17.10
2018-06-07T00:18:03.488Z,17.10
2018-06-07T00:20:33.930Z,17.00
2018-06-07T00:23:04.427Z,17.00
2018-06-07T00:25:34.630Z,17.00
2018-06-07T00:28:05.039Z,16.90
2018-06-07T00:30:35.239Z,16.90
2018-06-07T00:33:05.642Z,16.80
2018-06-07T00:35:41.270Z,16.80
2018-06-07T00:38:11.458Z,16.80
2018-06-07T00:40:41.782Z,16.70
2018-06-07T00:43:12.003Z,16.60
2018-06-07T00:45:42.326Z,16.60
2018-06-07T00:48:12.546Z,16.60
2018-06-07T00:50:42.890Z,16.60
2018-06-07T00:53:13.086Z,16.50
2018-06-07T00:55:43.390Z,16.50
2018-06-07T00:58:13.587Z,16.50
2018-06-07T01:00:43.914Z,16.50
2018-06-07T01:03:14.114Z,16.50
2018-06-07T01:05:44.442Z,16.50
2018-06-07T01:08:14.660Z,16.50
2018-06-07T01:10:44.976Z,16.50
2018-06-07T01:13:15.392Z,16.40
2018-06-07T01:15:45.778Z,16.40
2018-06-07T01:18:16.110Z,16.40
2018-06-07T01:20:46.310Z,16.40
2018-06-07T01:23:16.638Z,16.30
2018-06-07T01:25:46.858Z,16.20
2018-06-07T01:28:17.177Z,16.10
2018-06-07T01:30:52.485Z,16.10
2018-06-07T01:33:43.539Z,16.10
2018-06-07T01:36:13.781Z,16.10
2018-06-07T01:39:07.127Z,16.00
2018-06-07T01:41:37.411Z,16.10
2018-06-07T01:44:07.709Z,16.00
2018-06-07T01:46:37.914Z,16.00
2018-06-07T01:49:08.217Z,15.90
2018-06-07T01:51:38.405Z,15.90
2018-06-07T01:54:08.710Z,15.90
2018-06-07T01:56:38.907Z,15.90
2018-06-07T01:59:09.256Z,15.90
2018-06-07T02:01:39.449Z,15.80
2018-06-07T02:04:09.762Z,15.80
2018-06-07T02:06:40.135Z,15.80
2018-06-07T02:09:10.634Z,15.70
2018-06-07T02:11:41.162Z,15.70
2018-06-07T02:14:11.569Z,15.70
2018-06-07T02:16:41.989Z,15.60
2018-06-07T02:19:12.174Z,15.60
2018-06-07T02:21:42.498Z,15.50
2018-06-07T02:24:12.694Z,15.50
2018-06-07T02:26:43.016Z,15.50
2018-06-07T02:29:13.228Z,15.50
2018-06-07T02:31:43.562Z,15.40
2018-06-07T02:34:13.774Z,15.40
2018-06-07T02:36:44.094Z,15.40
2018-06-07T02:39:14.282Z,15.40
2018-06-07T02:41:44.615Z,15.30
2018-06-07T02:44:14.802Z,15.30
2018-06-07T02:46:45.107Z,15.30
2018-06-07T02:49:15.302Z,15.20
2018-06-07T02:51:45.615Z,15.20
2018-06-07T02:54:15.818Z,15.20
2018-06-07T02:56:46.146Z,15.10
2018-06-07T02:59:16.346Z,15.10
2018-06-07T03:01:46.680Z,15.10
2018-06-07T03:04:17.006Z,15.10
2018-06-07T03:06:47.220Z,15.00
2018-06-07T03:09:17.719Z,15.00
2018-06-07T03:11:48.150Z,15.00
2018-06-07T03:14:18.582Z,15.00
2018-06-07T03:16:48.783Z,15.00
2018-06-07T03:19:19.110Z,14.90
2018-06-07T03:21:49.342Z,14.90
2018-06-07T03:24:19.725Z,14.90
2018-06-07T03:26:49.946Z,14.90
2018-06-07T03:29:20.337Z,15.00
2018-06-07T03:31:50.636Z,14.90
2018-06-07T03:34:21.005Z,14.90
2018-06-07T03:36:51.198Z,15.00
2018-06-07T03:39:21.545Z,14.90
2018-06-07T03:41:51.734Z,15.00
2018-06-07T03:44:22.059Z,15.00
2018-06-07T03:46:52.253Z,15.00
2018-06-07T03:49:22.575Z,15.00
2018-06-07T03:51:52.786Z,15.00
2018-06-07T03:54:23.111Z,15.00
2018-06-07T03:56:53.309Z,15.00
2018-06-07T03:59:23.606Z,15.10
2018-06-07T04:01:53.975Z,15.10
2018-06-07T04:04:24.249Z,15.10
2018-06-07T04:06:54.583Z,15.10
2018-06-07T04:09:24.779Z,15.10
2018-06-07T04:11:55.086Z,15.10
2018-06-07T04:14:25.395Z,15.20
2018-06-07T04:16:55.755Z,15.20
2018-06-07T04:19:26.003Z,15.20
2018-06-07T04:21:56.419Z,15.30
2018-06-07T04:24:26.622Z,15.30
2018-06-07T04:26:56.961Z,15.40
2018-06-07T04:29:27.158Z,15.40
2018-06-07T04:31:57.450Z,15.50
2018-06-07T04:34:27.642Z,15.50
2018-06-07T04:36:57.960Z,15.50
2018-06-07T04:39:28.154Z,15.50
2018-06-07T04:41:58.458Z,15.60
2018-06-07T04:44:28.647Z,15.70
2018-06-07T04:46:59.038Z,15.90
2018-06-07T04:49:29.250Z,16.10
2018-06-07T04:51:59.598Z,17.90
2018-06-07T04:54:29.820Z,20.10
2018-06-07T04:57:00.150Z,21.60
2018-06-07T04:59:30.349Z,22.50
2018-06-07T05:02:00.660Z,23.60
2018-06-07T05:04:30.978Z,25.20
2018-06-07T05:07:01.251Z,26.10
2018-06-07T05:09:31.552Z,26.90
2018-06-07T05:12:01.748Z,27.80
2018-06-07T05:14:32.143Z,28.30
2018-06-07T05:17:02.340Z,28.60
2018-06-07T05:19:32.635Z,28.50
2018-06-07T05:22:02.842Z,28.50
2018-06-07T05:24:33.151Z,28.50
2018-06-07T05:27:03.350Z,28.30
2018-06-07T05:29:33.730Z,28.70
2018-06-07T05:32:03.943Z,29.00
2018-06-07T05:34:34.278Z,28.30
2018-06-07T05:37:04.802Z,27.40
2018-06-07T05:39:35.133Z,27.30
2018-06-07T05:42:05.502Z,26.90
2018-06-07T05:44:35.823Z,26.90
2018-06-07T05:47:06.074Z,27.50
2018-06-07T05:49:36.458Z,28.00
2018-06-07T05:52:06.662Z,28.60
2018-06-07T05:54:37.162Z,28.30
2018-06-07T05:57:07.358Z,28.50
2018-06-07T05:59:37.730Z,28.80
2018-06-07T06:02:07.888Z,28.70
2018-06-07T06:04:40.470Z,28.90
2018-06-07T06:07:10.679Z,28.50
2018-06-07T06:09:41.035Z,27.80
2018-06-07T06:12:11.325Z,28.20
2018-06-07T06:14:41.651Z,29.00
2018-06-07T06:17:12.009Z,28.40
2018-06-07T06:19:42.226Z,28.20
2018-06-07T06:22:12.527Z,28.50
2018-06-07T06:24:42.721Z,27.90
2018-06-07T06:27:13.045Z,27.20
2018-06-07T06:29:43.228Z,27.20
2018-06-07T06:32:13.542Z,27.80
2018-06-07T06:34:43.758Z,27.90
2018-06-07T06:37:14.066Z,28.30
2018-06-07T06:39:44.282Z,28.50
2018-06-07T06:42:14.594Z,28.60
2018-06-07T06:44:44.830Z,28.20
2018-06-07T06:47:15.164Z,27.80
2018-06-07T06:49:45.374Z,27.30
2018-06-07T06:52:15.670Z,27.30
2018-06-07T06:54:45.980Z,27.50
2018-06-07T06:57:16.194Z,27.50
2018-06-07T06:59:46.477Z,28.20
2018-06-07T07:02:16.694Z,27.90
2018-06-07T07:04:47.015Z,27.00
2018-06-07T07:07:17.211Z,27.00
2018-06-07T07:09:47.535Z,27.20
2018-06-07T07:12:17.734Z,27.90
2018-06-07T07:14:49.150Z,27.60
2018-06-07T07:17:19.338Z,27.60
2018-06-07T07:19:49.650Z,27.40
2018-06-07T07:22:19.845Z,27.10
2018-06-07T07:24:50.164Z,27.10
2018-06-07T07:27:20.357Z,27.20
2018-06-07T07:29:50.638Z,27.10
2018-06-07T07:32:20.842Z,27.20
2018-06-07T07:34:51.145Z,27.20
2018-06-07T07:37:21.367Z,27.10
2018-06-07T07:39:51.690Z,26.70
2018-06-07T07:42:21.894Z,26.80
2018-06-07T07:44:52.238Z,26.80
2018-06-07T07:47:22.443Z,27.20
2018-06-07T07:49:52.754Z,27.30
2018-06-07T07:52:23.073Z,26.60
2018-06-07T07:54:53.302Z,26.60
2018-06-07T07:57:23.646Z,26.30
2018-06-07T07:59:53.872Z,25.90
2018-06-07T08:02:24.189Z,25.90
2018-06-07T08:04:54.395Z,26.10
2018-06-07T08:07:24.706Z,25.90
2018-06-07T08:09:54.929Z,25.40
2018-06-07T08:12:25.247Z,24.20
2018-06-07T08:14:55.571Z,23.60
2018-06-07T08:17:25.870Z,23.40
2018-06-07T08:19:56.066Z,22.90
2018-06-07T08:22:26.405Z,22.60
2018-06-07T08:24:56.603Z,22.80
2018-06-07T08:27:26.919Z,22.90
2018-06-07T08:29:56.228Z,23.10
2018-06-07T08:32:26.286Z,23.00
2018-06-07T08:34:56.487Z,23.00
2018-06-07T08:37:26.857Z,23.40
2018-06-07T08:39:57.050Z,23.00
2018-06-07T08:42:27.630Z,23.00
2018-06-07T08:44:57.836Z,23.00
2018-06-07T08:47:28.187Z,23.10
2018-06-07T08:49:58.394Z,23.10
2018-06-07T08:52:28.731Z,23.20
2018-06-07T08:55:00.275Z,23.20
2018-06-07T08:57:30.473Z,23.00
2018-06-07T09:00:00.807Z,23.00
2018-06-07T09:02:31.006Z,23.20
2018-06-07T09:05:01.371Z,23.30
2018-06-07T09:07:31.596Z,23.40
2018-06-07T09:10:08.526Z,23.70
2018-06-07T09:12:38.722Z,23.60
2018-06-07T09:15:09.143Z,23.60
2018-06-07T09:17:39.365Z,23.70
2018-06-07T09:20:09.659Z,23.70
2018-06-07T09:22:39.862Z,23.70
2018-06-07T09:25:10.162Z,23.90
2018-06-07T09:27:40.379Z,24.20
2018-06-07T09:30:10.708Z,24.10
2018-06-07T09:32:40.907Z,24.00
2018-06-07T09:35:11.214Z,23.80
2018-06-07T09:37:41.448Z,23.90
2018-06-07T09:40:11.762Z,24.00
2018-06-07T09:42:41.983Z,24.20
2018-06-07T09:45:12.358Z,24.20
2018-06-07T09:47:42.531Z,24.20
2018-06-07T09:50:12.838Z,24.20
2018-06-07T09:52:43.170Z,24.30
2018-06-07T09:55:13.678Z,24.20
2018-06-07T09:57:44.106Z,24.60
2018-06-07T10:00:19.602Z,24.90
2018-06-07T10:02:49.914Z,25.00
2018-06-07T10:05:20.222Z,25.00
2018-06-07T10:07:53.495Z,24.80
2018-06-07T10:10:23.673Z,24.80
2018-06-07T10:12:53.954Z,24.80
2018-06-07T10:15:24.262Z,24.90
2018-06-07T10:17:54.558Z,25.10
2018-06-07T10:20:24.800Z,25.20
2018-06-07T10:22:55.730Z,25.20
2018-06-07T10:25:25.870Z,25.20
2018-06-07T10:27:56.158Z,25.20
2018-06-07T10:30:26.276Z,25.40
2018-06-07T10:32:56.530Z,25.70
2018-06-07T10:35:26.774Z,25.50
2018-06-07T10:37:56.916Z,25.80
2018-06-07T10:40:27.158Z,25.60
2018-06-07T10:42:57.326Z,25.80
2018-06-07T10:45:27.657Z,25.50
2018-06-07T10:47:57.801Z,25.40
2018-06-07T10:50:28.019Z,25.40
2018-06-07T10:52:58.148Z,25.70
2018-06-07T10:55:28.399Z,25.70
2018-06-07T10:57:58.568Z,25.40
2018-06-07T11:00:29.814Z,25.70
2018-06-07T11:02:59.960Z,25.90
2018-06-07T11:05:30.220Z,26.00
2018-06-07T11:08:00.381Z,26.10
2018-06-07T11:10:30.677Z,26.10
2018-06-07T11:13:07.004Z,26.00
2018-06-07T11:15:37.394Z,26.00
2018-06-07T11:18:07.564Z,26.30
2018-06-07T11:20:37.979Z,26.40
2018-06-07T11:23:08.144Z,26.50
2018-06-07T11:25:38.411Z,26.30
2018-06-07T11:28:08.655Z,26.20
2018-06-07T11:30:38.804Z,26.10
2018-06-07T11:33:09.089Z,26.50
2018-06-07T11:35:39.237Z,26.70
2018-06-07T11:38:09.504Z,26.50
2018-06-07T11:40:39.658Z,26.60
2018-06-07T11:43:09.907Z,26.30
2018-06-07T11:45:40.072Z,26.30
2018-06-07T11:48:10.324Z,26.30
2018-06-07T11:50:40.464Z,26.30
2018-06-07T11:53:10.711Z,26.30
2018-06-07T11:55:40.876Z,26.60
2018-06-07T11:58:11.187Z,26.80
2018-06-07T12:00:41.323Z,27.00
2018-06-07T12:03:11.559Z,26.90
2018-06-07T12:05:41.700Z,27.00
2018-06-07T12:08:11.948Z,27.20
2018-06-07T12:10:42.091Z,27.00
2018-06-07T12:13:12.353Z,27.20
2018-06-07T12:15:42.651Z,26.90
2018-06-07T12:18:12.906Z,26.90
2018-06-07T12:20:43.147Z,27.00
2018-06-07T12:23:13.379Z,27.00
2018-06-07T12:25:43.650Z,27.10
2018-06-07T12:28:13.810Z,27.20
2018-06-07T12:30:44.118Z,27.40
2018-06-07T12:33:14.275Z,27.50
2018-06-07T12:35:44.532Z,27.70
2018-06-07T12:38:14.677Z,27.40
2018-06-07T12:40:44.928Z,27.70
2018-06-07T12:43:15.101Z,27.50
2018-06-07T12:45:45.356Z,27.10
2018-06-07T12:48:15.511Z,27.30
2018-06-07T12:50:45.767Z,27.40
2018-06-07T12:53:15.909Z,27.40
2018-06-07T12:55:46.231Z,27.60
2018-06-07T12:58:16.392Z,27.40
2018-06-07T13:00:46.643Z,27.70
2018-06-07T13:03:16.841Z,27.90
2018-06-07T13:05:47.040Z,27.80
2018-06-07T13:08:17.208Z,27.70
2018-06-07T13:10:47.495Z,28.00
2018-06-07T13:13:17.636Z,28.10
2018-06-07T13:15:48.026Z,27.90
2018-06-07T13:18:18.190Z,27.70
2018-06-07T13:20:48.447Z,27.80
2018-06-07T13:23:18.703Z,28.00
2018-06-07T13:25:48.851Z,27.80
2018-06-07T13:28:19.105Z,27.80
2018-06-07T13:30:49.636Z,27.80
2018-06-07T13:33:19.912Z,27.60
2018-06-07T13:35:50.072Z,27.80
2018-06-07T13:38:20.324Z,27.80
2018-06-07T13:40:50.467Z,27.70
2018-06-07T13:43:20.960Z,27.60
2018-06-07T13:45:51.108Z,27.90
2018-06-07T13:48:21.344Z,27.90
2018-06-07T13:50:51.553Z,28.10
2018-06-07T13:53:21.747Z,28.10
2018-06-07T13:55:51.884Z,28.40
2018-06-07T13:58:22.124Z,28.40
2018-06-07T14:00:52.267Z,28.30
2018-06-07T14:03:22.524Z,28.30
2018-06-07T14:05:52.672Z,28.20
2018-06-07T14:08:22.920Z,28.30
2018-06-07T14:10:53.105Z,28.50
2018-06-07T14:13:23.335Z,28.50
2018-06-07T14:15:53.592Z,28.30
2018-06-07T14:18:23.900Z,28.30
2018-06-07T14:20:54.045Z,28.30
2018-06-07T14:23:24.308Z,28.10
2018-06-07T14:25:54.651Z,28.20
2018-06-07T14:28:24.900Z,28.30
2018-06-07T14:30:55.223Z,28.40
2018-06-07T14:33:25.408Z,28.50
2018-06-07T14:35:55.663Z,28.50
2018-06-07T14:38:25.845Z,28.40
2018-06-07T14:40:56.087Z,28.40
2018-06-07T14:43:26.240Z,28.40
2018-06-07T14:45:59.428Z,28.40
2018-06-07T14:48:29.588Z,28.50
2018-06-07T14:50:59.890Z,28.50
2018-06-07T14:53:30.040Z,28.40
2018-06-07T14:56:00.279Z,28.30
2018-06-07T14:58:30.452Z,28.40
2018-06-07T15:01:00.733Z,28.50
2018-06-07T15:03:30.892Z,28.60
2018-06-07T15:06:01.151Z,28.50
2018-06-07T15:08:31.328Z,28.50
2018-06-07T15:11:08.080Z,28.50
2018-06-07T15:13:38.243Z,28.50
2018-06-07T15:16:08.589Z,28.40
2018-06-07T15:18:38.755Z,28.30
2018-06-07T15:21:09.135Z,28.30
2018-06-07T15:23:39.277Z,28.30
2018-06-07T15:26:09.596Z,28.20
2018-06-07T15:28:39.864Z,28.30
2018-06-07T15:31:10.013Z,28.50
2018-06-07T15:33:40.319Z,28.50
2018-06-07T15:36:10.463Z,28.50
2018-06-07T15:38:41.095Z,28.60
2018-06-07T15:41:11.244Z,28.50
2018-06-07T15:43:41.487Z,28.40
2018-06-07T15:46:11.672Z,28.40
2018-06-07T15:48:41.953Z,28.40
2018-06-07T15:51:12.100Z,28.40
2018-06-07T15:53:42.399Z,28.40
2018-06-07T15:56:12.546Z,28.40
2018-06-07T15:58:42.914Z,28.30
2018-06-07T16:01:13.083Z,28.20
2018-06-07T16:03:43.417Z,28.10
2018-06-07T16:06:13.572Z,28.10
2018-06-07T16:08:43.848Z,28.10
2018-06-07T16:11:13.985Z,28.20
2018-06-07T16:13:44.284Z,28.10
2018-06-07T16:16:14.543Z,28.20
2018-06-07T16:18:44.810Z,28.20
2018-06-07T16:21:15.073Z,28.20
2018-06-07T16:23:45.235Z,28.20
2018-06-07T16:26:15.499Z,28.20
2018-06-07T16:28:45.667Z,28.20
2018-06-07T16:31:15.984Z,28.20
2018-06-07T16:33:46.228Z,28.10
2018-06-07T16:36:16.592Z,28.10
2018-06-07T16:38:46.734Z,27.90
2018-06-07T16:41:17.012Z,27.90
2018-06-07T16:43:47.167Z,27.90
2018-06-07T16:46:17.432Z,27.80
2018-06-07T16:48:47.632Z,27.80
2018-06-07T16:51:17.916Z,27.70
2018-06-07T16:53:48.066Z,27.70
2018-06-07T16:56:18.374Z,27.50
2018-06-07T16:58:48.510Z,27.50
2018-06-07T17:01:18.867Z,27.50
2018-06-07T17:03:49.052Z,27.50
2018-06-07T17:06:19.329Z,27.40
2018-06-07T17:08:49.590Z,27.40
2018-06-07T17:11:19.851Z,27.40
2018-06-07T17:13:49.991Z,27.40
2018-06-07T17:16:20.363Z,27.30
2018-06-07T17:18:50.472Z,27.30
2018-06-07T17:21:27.511Z,27.20
2018-06-07T17:23:57.656Z,27.20
2018-06-07T17:26:27.941Z,27.10
2018-06-07T17:28:58.192Z,27.10
2018-06-07T17:31:28.495Z,27.00
2018-06-07T17:33:58.781Z,27.00
2018-06-07T17:36:28.918Z,27.00
2018-06-07T17:38:59.193Z,26.90
2018-06-07T17:41:29.323Z,26.90
2018-06-07T17:43:59.584Z,26.80
2018-06-07T17:46:29.728Z,26.80
2018-06-07T17:48:59.968Z,26.80
2018-06-07T17:51:30.100Z,26.70
2018-06-07T17:54:00.365Z,26.70
2018-06-07T17:56:30.515Z,26.70
2018-06-07T17:59:00.767Z,26.60
2018-06-07T18:01:30.900Z,26.50
2018-06-07T18:04:01.195Z,26.50
2018-06-07T18:06:31.295Z,26.50
2018-06-07T18:09:01.548Z,26.40
2018-06-07T18:11:31.704Z,26.30
2018-06-07T18:14:02.005Z,26.20
2018-06-07T18:16:32.257Z,26.20
2018-06-07T18:19:02.492Z,26.10
2018-06-07T18:21:32.768Z,26.10
2018-06-07T18:24:02.912Z,26.00
2018-06-07T18:26:33.163Z,25.90
2018-06-07T18:29:03.340Z,25.80
2018-06-07T18:31:33.644Z,25.80
2018-06-07T18:34:03.845Z,25.70
2018-06-07T18:36:34.095Z,25.70
2018-06-07T18:39:06.240Z,25.60
2018-06-07T18:41:36.517Z,25.60
2018-06-07T18:44:06.660Z,25.40
2018-06-07T18:46:36.999Z,25.30
2018-06-07T18:49:07.313Z,25.20
2018-06-07T18:51:37.536Z,25.20
2018-06-07T18:54:07.723Z,25.20
2018-06-07T18:56:38.036Z,25.20
2018-06-07T18:59:08.264Z,25.20
2018-06-07T19:01:38.491Z,25.10
2018-06-07T19:04:08.725Z,25.10
2018-06-07T19:06:38.873Z,25.00
2018-06-07T19:09:14.597Z,24.90
2018-06-07T19:11:44.701Z,24.90
2018-06-07T19:14:20.112Z,24.80
2018-06-07T19:16:50.370Z,24.70
2018-06-07T19:19:25.976Z,24.60
2018-06-07T19:21:56.112Z,24.50
2018-06-07T19:24:26.452Z,24.30
2018-06-07T19:27:01.796Z,24.20
2018-06-07T19:29:32.066Z,24.00
2018-06-07T19:32:07.453Z,23.90
2018-06-07T19:34:42.835Z,23.80
2018-06-07T19:37:13.274Z,23.60
2018-06-07T19:39:48.815Z,23.50
2018-06-07T19:42:18.984Z,23.40
2018-06-07T19:44:49.227Z,23.30
2018-06-07T19:47:19.403Z,23.30
2018-06-07T19:49:49.652Z,23.20
2018-06-07T19:52:19.813Z,23.20
2018-06-07T19:54:50.056Z,23.10
2018-06-07T19:57:20.212Z,23.00
2018-06-07T19:59:50.473Z,22.90
2018-06-07T20:02:20.648Z,22.80
2018-06-07T20:04:51.815Z,22.70
2018-06-07T20:07:21.972Z,22.60
2018-06-07T20:09:52.228Z,22.40
2018-06-07T20:12:22.393Z,22.30
2018-06-07T20:14:52.631Z,22.30
2018-06-07T20:17:22.859Z,22.20
2018-06-07T20:19:53.151Z,22.30
2018-06-07T20:22:23.287Z,22.30
2018-06-07T20:24:53.559Z,22.20
2018-06-07T20:27:23.716Z,22.20
2018-06-07T20:29:53.999Z,22.20
2018-06-07T20:32:24.172Z,22.00
2018-06-07T20:34:54.500Z,21.90
2018-06-07T20:37:24.650Z,21.90
2018-06-07T20:39:54.921Z,21.70
2018-06-07T20:42:25.181Z,21.60
2018-06-07T20:44:55.323Z,21.60
2018-06-07T20:47:25.829Z,21.50
2018-06-07T20:49:55.978Z,21.50
2018-06-07T20:52:26.318Z,21.50
2018-06-07T20:54:56.480Z,21.40
2018-06-07T20:57:26.748Z,21.20
2018-06-07T20:59:56.918Z,21.10
2018-06-07T21:02:26.230Z,21.10
2018-06-07T21:04:56.144Z,21.00
2018-06-07T21:07:26.413Z,21.00
2018-06-07T21:09:56.567Z,20.90
2018-06-07T21:12:26.819Z,20.90
2018-06-07T21:14:56.968Z,20.90
2018-06-07T21:17:27.320Z,21.00
2018-06-07T21:19:57.518Z,20.90
2018-06-07T21:22:28.022Z,20.90
2018-06-07T21:24:58.185Z,20.90
2018-06-07T21:27:28.455Z,20.80
2018-06-07T21:29:58.639Z,20.80
2018-06-07T21:32:28.917Z,20.80
2018-06-07T21:34:59.279Z,20.70
2018-06-07T21:37:29.480Z,20.60
2018-06-07T21:39:59.736Z,20.50
2018-06-07T21:42:29.872Z,20.40
2018-06-07T21:45:00.128Z,20.30
2018-06-07T21:47:30.271Z,20.30
2018-06-07T21:50:00.584Z,20.30
2018-06-07T21:52:30.740Z,20.30
2018-06-07T21:55:01.008Z,20.30
2018-06-07T21:57:31.179Z,20.30
2018-06-07T22:00:01.452Z,20.30
2018-06-07T22:02:31.623Z,20.30
2018-06-07T22:05:01.883Z,20.30
2018-06-07T22:07:32.048Z,20.20
2018-06-07T22:10:02.354Z,20.20
2018-06-07T22:12:32.516Z,20.20
2018-06-07T22:15:02.776Z,20.10
2018-06-07T22:17:33.291Z,20.10
2018-06-07T22:20:03.764Z,20.10
2018-06-07T22:22:34.036Z,20.00
2018-06-07T22:25:04.210Z,19.90
2018-06-07T22:27:34.472Z,19.80
2018-06-07T22:30:04.691Z,19.80
2018-06-07T22:32:34.963Z,19.80
2018-06-07T22:35:05.228Z,19.80
2018-06-07T22:37:35.496Z,19.80
2018-06-07T22:40:05.684Z,19.70
2018-06-07T22:42:36.000Z,19.60
2018-06-07T22:45:06.152Z,19.60
2018-06-07T22:47:36.493Z,19.70
2018-06-07T22:50:06.646Z,19.70
2018-06-07T22:52:36.897Z,19.60
2018-06-07T22:55:07.059Z,19.60
2018-06-07T22:57:37.311Z,19.60
2018-06-07T23:00:07.532Z,19.50
2018-06-07T23:02:42.432Z,19.50
2018-06-07T23:05:12.605Z,19.50
2018-06-07T23:07:42.915Z,19.40
2018-06-07T23:10:13.086Z,19.30
2018-06-07T23:12:43.388Z,19.30
2018-06-07T23:15:13.563Z,19.30
2018-06-07T23:17:43.934Z,19.20
2018-06-07T23:20:15.212Z,19.00
2018-06-07T23:22:45.360Z,19.00
2018-06-07T23:25:15.651Z,18.90
2018-06-07T23:27:45.803Z,18.90
2018-06-07T23:30:16.068Z,18.90
2018-06-07T23:32:46.252Z,18.80
2018-06-07T23:35:16.512Z,18.80
2018-06-07T23:37:46.707Z,18.70
2018-06-07T23:40:16.983Z,18.80
2018-06-07T23:42:47.127Z,18.80
2018-06-07T23:45:17.412Z,18.70
2018-06-07T23:47:47.586Z,18.70
2018-06-07T23:50:17.884Z,18.60
2018-06-07T23:52:48.031Z,18.60
2018-06-07T23:55:18.316Z,18.50
2018-06-07T23:57:48.451Z,18.50
